Terminal Aerodrome Forecast
Issued by NWS Sterling, VA

Current Version | Previous Version | Graphics & Text | Print | Product List | Glossary On
Versions: 1 2 3 4 5 6 7 8 9 10 11 12 13 14 15 16 17 18 19
000
FTUS41 KLWX 271505 AAA
TAFDCA
TAF AMD
KDCA 271505Z 2715/2812 18006KT P6SM SCT150
     FM271800 19007KT P6SM VCTS SCT050CB
     FM280000 18007KT P6SM BKN080
     FM280400 18007KT P6SM FEW080 SCT200=

USA.gov is the U.S. government's official web portal to all federal, state and local government web resources and services.